sensor_id;sensor_type;location;lat;lon;timestamp;P1;durP1;ratioP1;P2;durP2;ratioP2
4057;SDS011;2044;48.692;9.020;2022-07-29T00:00:23;14.23;;;9.40;;
4057;SDS011;2044;48.692;9.020;2022-07-29T00:02:50;10.20;;;9.17;;
4057;SDS011;2044;48.692;9.020;2022-07-29T00:05:17;9.80;;;8.63;;
4057;SDS011;2044;48.692;9.020;2022-07-29T00:07:43;10.53;;;9.50;;
4057;SDS011;2044;48.692;9.020;2022-07-29T00:10:10;11.33;;;9.17;;
4057;SDS011;2044;48.692;9.020;2022-07-29T00:12:37;11.03;;;9.93;;
4057;SDS011;2044;48.692;9.020;2022-07-29T00:15:04;9.50;;;8.60;;
4057;SDS011;2044;48.692;9.020;2022-07-29T00:17:33;11.90;;;9.57;;
4057;SDS011;2044;48.692;9.020;2022-07-29T00:20:00;11.17;;;9.20;;
4057;SDS011;2044;48.692;9.020;2022-07-29T00:22:26;10.07;;;9.07;;
4057;SDS011;2044;48.692;9.020;2022-07-29T00:24:53;11.30;;;10.10;;
4057;SDS011;2044;48.692;9.020;2022-07-29T00:27:20;10.70;;;9.50;;
4057;SDS011;2044;48.692;9.020;2022-07-29T00:29:47;11.50;;;9.40;;
4057;SDS011;2044;48.692;9.020;2022-07-29T00:32:14;11.47;;;9.37;;
4057;SDS011;2044;48.692;9.020;2022-07-29T00:34:42;10.17;;;9.07;;
4057;SDS011;2044;48.692;9.020;2022-07-29T00:37:26;10.80;;;8.73;;
4057;SDS011;2044;48.692;9.020;2022-07-29T00:39:52;8.83;;;7.93;;
4057;SDS011;2044;48.692;9.020;2022-07-29T00:42:19;11.13;;;8.47;;
4057;SDS011;2044;48.692;9.020;2022-07-29T00:44:46;9.47;;;8.57;;
4057;SDS011;2044;48.692;9.020;2022-07-29T00:47:13;9.03;;;8.10;;
4057;SDS011;2044;48.692;9.020;2022-07-29T00:49:40;8.60;;;7.63;;
4057;SDS011;2044;48.692;9.020;2022-07-29T00:52:09;8.70;;;7.70;;
4057;SDS011;2044;48.692;9.020;2022-07-29T00:54:38;8.40;;;7.50;;
4057;SDS011;2044;48.692;9.020;2022-07-29T00:57:05;9.10;;;7.83;;
4057;SDS011;2044;48.692;9.020;2022-07-29T00:59:32;9.00;;;7.73;;
4057;SDS011;2044;48.692;9.020;2022-07-29T01:01:59;8.83;;;7.93;;
4057;SDS011;2044;48.692;9.020;2022-07-29T01:04:26;9.80;;;6.80;;
4057;SDS011;2044;48.692;9.020;2022-07-29T01:06:56;8.20;;;7.20;;
4057;SDS011;2044;48.692;9.020;2022-07-29T01:09:22;7.83;;;7.03;;
4057;SDS011;2044;48.692;9.020;2022-07-29T01:11:50;7.53;;;6.83;;
4057;SDS011;2044;48.692;9.020;2022-07-29T01:14:17;8.30;;;7.30;;
4057;SDS011;2044;48.692;9.020;2022-07-29T01:16:45;7.57;;;6.87;;
4057;SDS011;2044;48.692;9.020;2022-07-29T01:19:23;8.20;;;7.40;;
4057;SDS011;2044;48.692;9.020;2022-07-29T01:22:02;9.60;;;8.60;;
4057;SDS011;2044;48.692;9.020;2022-07-29T01:24:50;8.33;;;7.53;;
4057;SDS011;2044;48.692;9.020;2022-07-29T01:27:34;10.00;;;7.77;;
4057;SDS011;2044;48.692;9.020;2022-07-29T01:30:09;9.77;;;8.30;;
4057;SDS011;2044;48.692;9.020;2022-07-29T01:32:37;9.63;;;8.10;;
4057;SDS011;2044;48.692;9.020;2022-07-29T01:35:06;9.87;;;8.90;;
4057;SDS011;2044;48.692;9.020;2022-07-29T01:37:43;9.47;;;8.13;;
4057;SDS011;2044;48.692;9.020;2022-07-29T01:40:13;9.93;;;8.93;;
4057;SDS011;2044;48.692;9.020;2022-07-29T01:42:47;8.40;;;7.60;;
4057;SDS011;2044;48.692;9.020;2022-07-29T01:45:18;12.27;;;8.37;;
4057;SDS011;2044;48.692;9.020;2022-07-29T01:47:50;9.00;;;8.10;;
4057;SDS011;2044;48.692;9.020;2022-07-29T01:50:23;9.70;;;8.30;;
4057;SDS011;2044;48.692;9.020;2022-07-29T01:52:58;8.47;;;7.67;;
4057;SDS011;2044;48.692;9.020;2022-07-29T01:55:28;10.80;;;7.90;;
4057;SDS011;2044;48.692;9.020;2022-07-29T01:57:58;9.80;;;8.47;;
4057;SDS011;2044;48.692;9.020;2022-07-29T02:00:28;10.37;;;8.27;;
4057;SDS011;2044;48.692;9.020;2022-07-29T02:02:57;8.50;;;7.70;;
4057;SDS011;2044;48.692;9.020;2022-07-29T02:05:26;10.60;;;8.07;;
4057;SDS011;2044;48.692;9.020;2022-07-29T02:07:54;8.10;;;7.30;;
4057;SDS011;2044;48.692;9.020;2022-07-29T02:10:24;9.33;;;7.50;;
4057;SDS011;2044;48.692;9.020;2022-07-29T02:12:53;7.77;;;6.97;;
4057;SDS011;2044;48.692;9.020;2022-07-29T02:15:22;6.83;;;6.13;;
4057;SDS011;2044;48.692;9.020;2022-07-29T02:17:51;7.40;;;6.70;;
4057;SDS011;2044;48.692;9.020;2022-07-29T02:20:22;7.63;;;6.80;;
4057;SDS011;2044;48.692;9.020;2022-07-29T02:22:51;7.17;;;6.47;;
4057;SDS011;2044;48.692;9.020;2022-07-29T02:25:19;6.73;;;6.10;;
4057;SDS011;2044;48.692;9.020;2022-07-29T02:27:48;9.10;;;7.60;;
4057;SDS011;2044;48.692;9.020;2022-07-29T02:30:16;7.80;;;7.10;;
4057;SDS011;2044;48.692;9.020;2022-07-29T02:32:44;7.50;;;6.70;;
4057;SDS011;2044;48.692;9.020;2022-07-29T02:35:14;8.80;;;7.10;;
4057;SDS011;2044;48.692;9.020;2022-07-29T02:37:42;8.40;;;7.60;;
4057;SDS011;2044;48.692;9.020;2022-07-29T02:40:10;7.90;;;7.20;;
4057;SDS011;2044;48.692;9.020;2022-07-29T02:42:41;10.20;;;6.90;;
4057;SDS011;2044;48.692;9.020;2022-07-29T02:45:09;7.00;;;6.30;;
4057;SDS011;2044;48.692;9.020;2022-07-29T02:47:38;8.50;;;6.47;;
4057;SDS011;2044;48.692;9.020;2022-07-29T02:50:09;6.90;;;6.20;;
4057;SDS011;2044;48.692;9.020;2022-07-29T02:52:43;7.60;;;6.10;;
4057;SDS011;2044;48.692;9.020;2022-07-29T02:55:16;7.53;;;6.83;;
4057;SDS011;2044;48.692;9.020;2022-07-29T02:57:49;8.80;;;6.90;;
4057;SDS011;2044;48.692;9.020;2022-07-29T03:00:21;7.63;;;6.80;;
4057;SDS011;2044;48.692;9.020;2022-07-29T03:02:49;8.57;;;7.27;;
4057;SDS011;2044;48.692;9.020;2022-07-29T03:05:19;7.60;;;6.83;;
4057;SDS011;2044;48.692;9.020;2022-07-29T03:07:49;8.47;;;7.57;;
4057;SDS011;2044;48.692;9.020;2022-07-29T03:10:19;8.40;;;7.47;;
4057;SDS011;2044;48.692;9.020;2022-07-29T03:12:47;9.40;;;7.80;;
4057;SDS011;2044;48.692;9.020;2022-07-29T03:15:14;9.47;;;7.30;;
4057;SDS011;2044;48.692;9.020;2022-07-29T03:17:41;10.63;;;8.50;;
4057;SDS011;2044;48.692;9.020;2022-07-29T03:20:08;9.80;;;8.47;;
4057;SDS011;2044;48.692;9.020;2022-07-29T03:22:38;8.47;;;7.60;;
4057;SDS011;2044;48.692;9.020;2022-07-29T03:25:10;10.03;;;7.90;;
4057;SDS011;2044;48.692;9.020;2022-07-29T03:27:37;8.77;;;7.40;;
4057;SDS011;2044;48.692;9.020;2022-07-29T03:30:04;9.50;;;7.90;;
4057;SDS011;2044;48.692;9.020;2022-07-29T03:32:32;8.23;;;7.43;;
4057;SDS011;2044;48.692;9.020;2022-07-29T03:34:59;9.90;;;7.90;;
4057;SDS011;2044;48.692;9.020;2022-07-29T03:37:26;7.57;;;6.90;;
4057;SDS011;2044;48.692;9.020;2022-07-29T03:39:53;8.00;;;6.70;;
4057;SDS011;2044;48.692;9.020;2022-07-29T03:42:23;8.00;;;6.90;;
4057;SDS011;2044;48.692;9.020;2022-07-29T03:44:51;7.60;;;6.40;;
4057;SDS011;2044;48.692;9.020;2022-07-29T03:47:20;7.07;;;6.37;;
4057;SDS011;2044;48.692;9.020;2022-07-29T03:49:52;7.93;;;7.13;;
4057;SDS011;2044;48.692;9.020;2022-07-29T03:52:22;9.00;;;6.00;;
4057;SDS011;2044;48.692;9.020;2022-07-29T03:54:49;6.60;;;6.00;;
4057;SDS011;2044;48.692;9.020;2022-07-29T03:57:16;6.60;;;5.90;;
4057;SDS011;2044;48.692;9.020;2022-07-29T03:59:47;7.07;;;6.30;;
4057;SDS011;2044;48.692;9.020;2022-07-29T04:02:15;6.23;;;5.60;;
4057;SDS011;2044;48.692;9.020;2022-07-29T04:04:41;5.87;;;5.37;;
4057;SDS011;2044;48.692;9.020;2022-07-29T04:07:10;6.50;;;5.90;;
4057;SDS011;2044;48.692;9.020;2022-07-29T04:09:38;6.90;;;5.43;;
4057;SDS011;2044;48.692;9.020;2022-07-29T04:12:05;5.57;;;5.07;;
4057;SDS011;2044;48.692;9.020;2022-07-29T04:14:33;6.40;;;5.70;;
4057;SDS011;2044;48.692;9.020;2022-07-29T04:17:02;6.33;;;5.73;;
4057;SDS011;2044;48.692;9.020;2022-07-29T04:19:30;6.73;;;5.77;;
4057;SDS011;2044;48.692;9.020;2022-07-29T04:21:57;7.70;;;5.37;;
4057;SDS011;2044;48.692;9.020;2022-07-29T04:24:24;5.90;;;5.30;;
4057;SDS011;2044;48.692;9.020;2022-07-29T04:26:51;5.30;;;4.80;;
4057;SDS011;2044;48.692;9.020;2022-07-29T04:29:19;6.63;;;5.63;;
4057;SDS011;2044;48.692;9.020;2022-07-29T04:31:45;5.60;;;5.10;;
4057;SDS011;2044;48.692;9.020;2022-07-29T04:34:14;7.20;;;5.00;;
4057;SDS011;2044;48.692;9.020;2022-07-29T04:36:40;5.77;;;5.20;;
4057;SDS011;2044;48.692;9.020;2022-07-29T04:39:07;5.60;;;5.10;;
4057;SDS011;2044;48.692;9.020;2022-07-29T04:41:34;4.80;;;4.40;;
4057;SDS011;2044;48.692;9.020;2022-07-29T04:44:02;4.73;;;4.30;;
4057;SDS011;2044;48.692;9.020;2022-07-29T04:46:30;5.00;;;4.40;;
4057;SDS011;2044;48.692;9.020;2022-07-29T04:48:57;4.97;;;4.10;;
4057;SDS011;2044;48.692;9.020;2022-07-29T04:51:25;4.97;;;4.53;;
4057;SDS011;2044;48.692;9.020;2022-07-29T04:53:52;4.47;;;3.97;;
4057;SDS011;2044;48.692;9.020;2022-07-29T04:56:18;4.13;;;3.73;;
4057;SDS011;2044;48.692;9.020;2022-07-29T04:58:45;4.03;;;3.73;;
4057;SDS011;2044;48.692;9.020;2022-07-29T05:01:12;4.73;;;3.77;;
4057;SDS011;2044;48.692;9.020;2022-07-29T05:03:40;4.60;;;4.20;;
4057;SDS011;2044;48.692;9.020;2022-07-29T05:06:07;3.97;;;3.67;;
4057;SDS011;2044;48.692;9.020;2022-07-29T05:08:35;6.63;;;4.77;;
4057;SDS011;2044;48.692;9.020;2022-07-29T05:11:01;4.03;;;3.70;;
4057;SDS011;2044;48.692;9.020;2022-07-29T05:13:29;6.97;;;3.90;;
4057;SDS011;2044;48.692;9.020;2022-07-29T05:15:55;4.13;;;3.80;;
4057;SDS011;2044;48.692;9.020;2022-07-29T05:18:23;3.90;;;3.60;;
4057;SDS011;2044;48.692;9.020;2022-07-29T05:20:49;3.73;;;3.13;;
4057;SDS011;2044;48.692;9.020;2022-07-29T05:23:17;3.20;;;3.00;;
4057;SDS011;2044;48.692;9.020;2022-07-29T05:25:45;4.50;;;3.43;;
4057;SDS011;2044;48.692;9.020;2022-07-29T05:28:12;3.90;;;3.60;;
4057;SDS011;2044;48.692;9.020;2022-07-29T05:30:38;4.40;;;3.93;;
4057;SDS011;2044;48.692;9.020;2022-07-29T05:33:05;3.90;;;3.60;;
4057;SDS011;2044;48.692;9.020;2022-07-29T05:35:32;4.00;;;3.70;;
4057;SDS011;2044;48.692;9.020;2022-07-29T05:37:59;3.50;;;3.30;;
4057;SDS011;2044;48.692;9.020;2022-07-29T05:40:26;5.40;;;4.20;;
4057;SDS011;2044;48.692;9.020;2022-07-29T05:42:54;5.10;;;3.90;;
4057;SDS011;2044;48.692;9.020;2022-07-29T05:45:21;4.80;;;4.40;;
4057;SDS011;2044;48.692;9.020;2022-07-29T05:47:49;5.60;;;3.80;;
4057;SDS011;2044;48.692;9.020;2022-07-29T05:50:16;4.47;;;4.07;;
4057;SDS011;2044;48.692;9.020;2022-07-29T05:52:42;4.20;;;3.80;;
4057;SDS011;2044;48.692;9.020;2022-07-29T05:55:09;4.77;;;4.37;;
4057;SDS011;2044;48.692;9.020;2022-07-29T05:57:36;4.53;;;4.10;;
4057;SDS011;2044;48.692;9.020;2022-07-29T06:00:05;4.20;;;3.90;;
4057;SDS011;2044;48.692;9.020;2022-07-29T06:02:32;4.67;;;4.27;;
4057;SDS011;2044;48.692;9.020;2022-07-29T06:04:59;5.00;;;4.60;;
4057;SDS011;2044;48.692;9.020;2022-07-29T06:07:26;5.80;;;4.63;;
4057;SDS011;2044;48.692;9.020;2022-07-29T06:09:52;4.60;;;4.30;;
4057;SDS011;2044;48.692;9.020;2022-07-29T06:12:19;4.50;;;4.10;;
4057;SDS011;2044;48.692;9.020;2022-07-29T06:14:46;5.80;;;5.20;;
4057;SDS011;2044;48.692;9.020;2022-07-29T06:17:14;6.10;;;5.17;;
4057;SDS011;2044;48.692;9.020;2022-07-29T06:19:42;4.47;;;4.17;;
4057;SDS011;2044;48.692;9.020;2022-07-29T06:22:08;6.10;;;5.50;;
4057;SDS011;2044;48.692;9.020;2022-07-29T06:24:35;5.93;;;5.10;;
4057;SDS011;2044;48.692;9.020;2022-07-29T06:27:06;5.90;;;5.37;;
4057;SDS011;2044;48.692;9.020;2022-07-29T06:29:33;5.80;;;5.40;;
4057;SDS011;2044;48.692;9.020;2022-07-29T06:31:59;5.87;;;5.47;;
4057;SDS011;2044;48.692;9.020;2022-07-29T06:34:28;7.10;;;5.60;;
4057;SDS011;2044;48.692;9.020;2022-07-29T06:36:55;6.70;;;6.10;;
4057;SDS011;2044;48.692;9.020;2022-07-29T06:39:21;7.13;;;6.60;;
4057;SDS011;2044;48.692;9.020;2022-07-29T06:41:49;7.60;;;6.80;;
4057;SDS011;2044;48.692;9.020;2022-07-29T06:44:16;7.03;;;6.43;;
4057;SDS011;2044;48.692;9.020;2022-07-29T06:46:44;6.73;;;6.23;;
4057;SDS011;2044;48.692;9.020;2022-07-29T06:49:14;6.70;;;6.20;;
4057;SDS011;2044;48.692;9.020;2022-07-29T06:51:42;7.10;;;6.40;;
4057;SDS011;2044;48.692;9.020;2022-07-29T06:54:08;11.00;;;7.13;;
4057;SDS011;2044;48.692;9.020;2022-07-29T06:56:35;8.73;;;6.57;;
4057;SDS011;2044;48.692;9.020;2022-07-29T06:59:03;6.40;;;6.00;;
4057;SDS011;2044;48.692;9.020;2022-07-29T07:01:30;12.30;;;7.00;;
4057;SDS011;2044;48.692;9.020;2022-07-29T07:03:56;6.70;;;6.30;;
4057;SDS011;2044;48.692;9.020;2022-07-29T07:06:23;7.53;;;7.00;;
4057;SDS011;2044;48.692;9.020;2022-07-29T07:08:51;7.93;;;7.33;;
4057;SDS011;2044;48.692;9.020;2022-07-29T07:11:18;8.30;;;7.60;;
4057;SDS011;2044;48.692;9.020;2022-07-29T07:13:45;8.50;;;7.77;;
4057;SDS011;2044;48.692;9.020;2022-07-29T07:16:12;8.10;;;7.40;;
4057;SDS011;2044;48.692;9.020;2022-07-29T07:18:38;7.40;;;6.80;;
4057;SDS011;2044;48.692;9.020;2022-07-29T07:21:05;6.77;;;6.17;;
4057;SDS011;2044;48.692;9.020;2022-07-29T07:23:32;7.20;;;6.20;;
4057;SDS011;2044;48.692;9.020;2022-07-29T07:26:00;7.60;;;6.80;;
4057;SDS011;2044;48.692;9.020;2022-07-29T07:28:27;7.00;;;6.33;;
4057;SDS011;2044;48.692;9.020;2022-07-29T07:30:54;7.03;;;6.33;;
4057;SDS011;2044;48.692;9.020;2022-07-29T07:33:21;6.80;;;6.20;;
4057;SDS011;2044;48.692;9.020;2022-07-29T07:35:48;7.43;;;6.63;;
4057;SDS011;2044;48.692;9.020;2022-07-29T07:38:14;7.63;;;7.00;;
4057;SDS011;2044;48.692;9.020;2022-07-29T07:40:41;8.50;;;7.60;;
4057;SDS011;2044;48.692;9.020;2022-07-29T07:43:09;8.60;;;7.90;;
4057;SDS011;2044;48.692;9.020;2022-07-29T07:45:36;9.30;;;8.50;;
4057;SDS011;2044;48.692;9.020;2022-07-29T07:48:03;9.40;;;8.80;;
4057;SDS011;2044;48.692;9.020;2022-07-29T07:50:30;9.27;;;8.67;;
4057;SDS011;2044;48.692;9.020;2022-07-29T07:52:57;10.50;;;9.70;;
4057;SDS011;2044;48.692;9.020;2022-07-29T07:55:23;10.80;;;10.00;;
4057;SDS011;2044;48.692;9.020;2022-07-29T07:57:51;11.37;;;10.67;;
4057;SDS011;2044;48.692;9.020;2022-07-29T08:00:20;11.73;;;10.93;;
4057;SDS011;2044;48.692;9.020;2022-07-29T08:02:47;11.30;;;10.60;;
4057;SDS011;2044;48.692;9.020;2022-07-29T08:05:14;11.60;;;10.97;;
4057;SDS011;2044;48.692;9.020;2022-07-29T08:07:43;11.60;;;10.80;;
4057;SDS011;2044;48.692;9.020;2022-07-29T08:10:10;11.90;;;11.10;;
4057;SDS011;2044;48.692;9.020;2022-07-29T08:12:37;13.03;;;12.23;;
4057;SDS011;2044;48.692;9.020;2022-07-29T08:15:04;13.47;;;12.67;;
4057;SDS011;2044;48.692;9.020;2022-07-29T08:17:34;12.80;;;12.00;;
4057;SDS011;2044;48.692;9.020;2022-07-29T08:20:01;13.47;;;12.70;;
4057;SDS011;2044;48.692;9.020;2022-07-29T08:22:28;13.13;;;12.20;;
4057;SDS011;2044;48.692;9.020;2022-07-29T08:24:55;13.60;;;12.80;;
4057;SDS011;2044;48.692;9.020;2022-07-29T08:27:22;14.00;;;13.10;;
4057;SDS011;2044;48.692;9.020;2022-07-29T08:29:51;13.60;;;12.70;;
4057;SDS011;2044;48.692;9.020;2022-07-29T08:32:17;13.90;;;12.90;;
4057;SDS011;2044;48.692;9.020;2022-07-29T08:34:46;13.00;;;12.10;;
4057;SDS011;2044;48.692;9.020;2022-07-29T08:37:12;13.27;;;12.37;;
4057;SDS011;2044;48.692;9.020;2022-07-29T08:39:39;12.87;;;11.87;;
4057;SDS011;2044;48.692;9.020;2022-07-29T08:42:06;12.53;;;11.90;;
4057;SDS011;2044;48.692;9.020;2022-07-29T08:44:34;12.90;;;12.00;;
4057;SDS011;2044;48.692;9.020;2022-07-29T08:47:02;12.50;;;11.70;;
4057;SDS011;2044;48.692;9.020;2022-07-29T08:49:29;11.97;;;11.17;;
4057;SDS011;2044;48.692;9.020;2022-07-29T08:51:58;12.53;;;11.73;;
4057;SDS011;2044;48.692;9.020;2022-07-29T08:54:25;11.97;;;11.20;;
4057;SDS011;2044;48.692;9.020;2022-07-29T08:56:53;12.53;;;11.57;;
4057;SDS011;2044;48.692;9.020;2022-07-29T08:59:22;12.10;;;11.40;;
4057;SDS011;2044;48.692;9.020;2022-07-29T09:01:53;12.10;;;11.23;;
4057;SDS011;2044;48.692;9.020;2022-07-29T09:04:20;12.17;;;11.57;;
4057;SDS011;2044;48.692;9.020;2022-07-29T09:06:51;13.10;;;12.30;;
4057;SDS011;2044;48.692;9.020;2022-07-29T09:09:20;13.10;;;12.33;;
4057;SDS011;2044;48.692;9.020;2022-07-29T09:11:47;13.20;;;12.40;;
4057;SDS011;2044;48.692;9.020;2022-07-29T09:14:14;12.20;;;11.50;;
4057;SDS011;2044;48.692;9.020;2022-07-29T09:16:48;12.50;;;11.80;;
4057;SDS011;2044;48.692;9.020;2022-07-29T09:19:23;12.87;;;12.17;;
4057;SDS011;2044;48.692;9.020;2022-07-29T09:21:51;12.10;;;11.43;;
4057;SDS011;2044;48.692;9.020;2022-07-29T09:27:10;12.57;;;11.57;;
4057;SDS011;2044;48.692;9.020;2022-07-29T09:29:43;12.83;;;12.13;;
4057;SDS011;2044;48.692;9.020;2022-07-29T09:32:10;13.47;;;12.30;;
4057;SDS011;2044;48.692;9.020;2022-07-29T09:34:37;13.07;;;11.70;;
4057;SDS011;2044;48.692;9.020;2022-07-29T09:37:04;12.47;;;11.77;;
4057;SDS011;2044;48.692;9.020;2022-07-29T09:39:31;12.83;;;11.93;;
4057;SDS011;2044;48.692;9.020;2022-07-29T09:42:01;13.33;;;12.57;;
4057;SDS011;2044;48.692;9.020;2022-07-29T09:44:40;14.37;;;13.47;;
4057;SDS011;2044;48.692;9.020;2022-07-29T09:47:10;13.60;;;12.70;;
4057;SDS011;2044;48.692;9.020;2022-07-29T09:49:50;14.00;;;13.10;;
4057;SDS011;2044;48.692;9.020;2022-07-29T09:52:17;14.17;;;13.27;;
4057;SDS011;2044;48.692;9.020;2022-07-29T09:54:45;12.87;;;12.07;;
4057;SDS011;2044;48.692;9.020;2022-07-29T09:57:23;13.63;;;12.60;;
4057;SDS011;2044;48.692;9.020;2022-07-29T09:59:58;13.23;;;12.43;;
4057;SDS011;2044;48.692;9.020;2022-07-29T10:02:29;12.70;;;12.00;;
4057;SDS011;2044;48.692;9.020;2022-07-29T10:04:57;13.37;;;12.67;;
4057;SDS011;2044;48.692;9.020;2022-07-29T10:07:25;12.67;;;11.83;;
4057;SDS011;2044;48.692;9.020;2022-07-29T10:09:55;12.00;;;11.30;;
4057;SDS011;2044;48.692;9.020;2022-07-29T10:12:24;13.37;;;12.53;;
4057;SDS011;2044;48.692;9.020;2022-07-29T10:14:51;13.67;;;12.50;;
4057;SDS011;2044;48.692;9.020;2022-07-29T10:17:19;13.47;;;12.67;;
4057;SDS011;2044;48.692;9.020;2022-07-29T10:19:47;14.77;;;12.93;;
4057;SDS011;2044;48.692;9.020;2022-07-29T10:22:15;13.20;;;12.33;;
4057;SDS011;2044;48.692;9.020;2022-07-29T10:24:42;13.80;;;12.90;;
4057;SDS011;2044;48.692;9.020;2022-07-29T10:27:09;14.13;;;12.90;;
4057;SDS011;2044;48.692;9.020;2022-07-29T10:29:37;12.50;;;11.80;;
4057;SDS011;2044;48.692;9.020;2022-07-29T10:32:09;13.80;;;12.60;;
4057;SDS011;2044;48.692;9.020;2022-07-29T10:34:50;12.03;;;11.17;;
4057;SDS011;2044;48.692;9.020;2022-07-29T10:37:28;11.40;;;10.27;;
4057;SDS011;2044;48.692;9.020;2022-07-29T10:40:07;11.40;;;9.40;;
4057;SDS011;2044;48.692;9.020;2022-07-29T10:42:59;14.13;;;7.77;;
4057;SDS011;2044;48.692;9.020;2022-07-29T10:45:46;13.00;;;8.80;;
4057;SDS011;2044;48.692;9.020;2022-07-29T10:48:15;12.43;;;9.93;;
4057;SDS011;2044;48.692;9.020;2022-07-29T10:50:55;14.10;;;11.67;;
4057;SDS011;2044;48.692;9.020;2022-07-29T10:53:23;16.30;;;12.20;;
4057;SDS011;2044;48.692;9.020;2022-07-29T10:55:51;12.77;;;10.90;;
4057;SDS011;2044;48.692;9.020;2022-07-29T10:58:18;16.13;;;11.87;;
4057;SDS011;2044;48.692;9.020;2022-07-29T11:00:50;16.10;;;12.67;;
4057;SDS011;2044;48.692;9.020;2022-07-29T11:06:10;14.23;;;10.90;;
4057;SDS011;2044;48.692;9.020;2022-07-29T11:08:37;16.77;;;12.57;;
4057;SDS011;2044;48.692;9.020;2022-07-29T11:14:03;12.50;;;10.70;;
4057;SDS011;2044;48.692;9.020;2022-07-29T11:19:27;13.07;;;10.67;;
4057;SDS011;2044;48.692;9.020;2022-07-29T11:21:53;12.30;;;10.20;;
4057;SDS011;2044;48.692;9.020;2022-07-29T11:24:21;11.70;;;9.93;;
4057;SDS011;2044;48.692;9.020;2022-07-29T11:27:11;12.63;;;10.93;;
4057;SDS011;2044;48.692;9.020;2022-07-29T11:29:41;12.83;;;9.70;;
4057;SDS011;2044;48.692;9.020;2022-07-29T11:32:16;15.37;;;10.17;;
4057;SDS011;2044;48.692;9.020;2022-07-29T11:34:44;12.30;;;9.93;;
4057;SDS011;2044;48.692;9.020;2022-07-29T11:37:16;13.20;;;9.23;;
4057;SDS011;2044;48.692;9.020;2022-07-29T11:39:45;9.70;;;8.70;;
4057;SDS011;2044;48.692;9.020;2022-07-29T11:45:08;13.07;;;9.23;;
4057;SDS011;2044;48.692;9.020;2022-07-29T11:47:37;11.10;;;9.87;;
4057;SDS011;2044;48.692;9.020;2022-07-29T11:50:07;10.43;;;9.43;;
4057;SDS011;2044;48.692;9.020;2022-07-29T11:52:36;12.77;;;10.30;;
4057;SDS011;2044;48.692;9.020;2022-07-29T11:55:08;10.27;;;9.27;;
4057;SDS011;2044;48.692;9.020;2022-07-29T11:57:37;8.77;;;7.80;;
4057;SDS011;2044;48.692;9.020;2022-07-29T12:00:12;9.77;;;8.07;;
4057;SDS011;2044;48.692;9.020;2022-07-29T12:02:49;8.20;;;7.47;;
4057;SDS011;2044;48.692;9.020;2022-07-29T12:05:16;8.80;;;8.00;;
4057;SDS011;2044;48.692;9.020;2022-07-29T12:07:43;9.60;;;8.00;;
4057;SDS011;2044;48.692;9.020;2022-07-29T12:10:10;8.40;;;7.60;;
4057;SDS011;2044;48.692;9.020;2022-07-29T12:12:37;9.00;;;8.20;;
4057;SDS011;2044;48.692;9.020;2022-07-29T12:17:51;7.40;;;6.80;;
4057;SDS011;2044;48.692;9.020;2022-07-29T12:20:22;7.00;;;6.40;;
4057;SDS011;2044;48.692;9.020;2022-07-29T12:22:50;7.77;;;7.07;;
4057;SDS011;2044;48.692;9.020;2022-07-29T12:25:18;8.07;;;6.40;;
4057;SDS011;2044;48.692;9.020;2022-07-29T12:27:46;7.47;;;6.73;;
4057;SDS011;2044;48.692;9.020;2022-07-29T12:30:14;9.43;;;6.20;;
4057;SDS011;2044;48.692;9.020;2022-07-29T12:32:43;7.80;;;6.43;;
4057;SDS011;2044;48.692;9.020;2022-07-29T12:35:14;6.80;;;6.13;;
4057;SDS011;2044;48.692;9.020;2022-07-29T12:37:42;6.90;;;6.03;;
4057;SDS011;2044;48.692;9.020;2022-07-29T12:40:13;6.03;;;5.53;;
4057;SDS011;2044;48.692;9.020;2022-07-29T12:42:41;7.47;;;5.90;;
4057;SDS011;2044;48.692;9.020;2022-07-29T12:45:32;7.40;;;6.27;;
4057;SDS011;2044;48.692;9.020;2022-07-29T12:47:58;6.70;;;6.10;;
4057;SDS011;2044;48.692;9.020;2022-07-29T12:50:26;6.90;;;6.30;;
4057;SDS011;2044;48.692;9.020;2022-07-29T12:52:53;9.90;;;6.20;;
4057;SDS011;2044;48.692;9.020;2022-07-29T12:55:38;8.27;;;6.80;;
4057;SDS011;2044;48.692;9.020;2022-07-29T12:58:09;10.07;;;8.53;;
4057;SDS011;2044;48.692;9.020;2022-07-29T13:00:36;10.90;;;7.90;;
4057;SDS011;2044;48.692;9.020;2022-07-29T13:03:03;13.93;;;8.40;;
4057;SDS011;2044;48.692;9.020;2022-07-29T13:05:41;9.57;;;8.57;;
4057;SDS011;2044;48.692;9.020;2022-07-29T13:08:10;12.40;;;8.40;;
4057;SDS011;2044;48.692;9.020;2022-07-29T13:10:37;10.07;;;9.17;;
4057;SDS011;2044;48.692;9.020;2022-07-29T13:13:05;13.17;;;9.87;;
4057;SDS011;2044;48.692;9.020;2022-07-29T13:15:33;14.70;;;10.33;;
4057;SDS011;2044;48.692;9.020;2022-07-29T13:18:00;13.37;;;10.70;;
4057;SDS011;2044;48.692;9.020;2022-07-29T13:20:28;14.23;;;10.90;;
4057;SDS011;2044;48.692;9.020;2022-07-29T13:22:57;14.53;;;11.63;;
4057;SDS011;2044;48.692;9.020;2022-07-29T13:25:26;13.57;;;11.97;;
4057;SDS011;2044;48.692;9.020;2022-07-29T13:27:54;13.10;;;11.80;;
4057;SDS011;2044;48.692;9.020;2022-07-29T13:30:21;15.90;;;12.57;;
4057;SDS011;2044;48.692;9.020;2022-07-29T13:32:49;11.83;;;10.57;;
4057;SDS011;2044;48.692;9.020;2022-07-29T13:35:16;13.10;;;10.87;;
4057;SDS011;2044;48.692;9.020;2022-07-29T13:37:43;14.27;;;12.10;;
4057;SDS011;2044;48.692;9.020;2022-07-29T13:40:11;12.07;;;10.83;;
4057;SDS011;2044;48.692;9.020;2022-07-29T13:42:39;12.97;;;11.67;;
4057;SDS011;2044;48.692;9.020;2022-07-29T13:45:07;16.20;;;12.73;;
4057;SDS011;2044;48.692;9.020;2022-07-29T13:47:35;12.50;;;11.23;;
4057;SDS011;2044;48.692;9.020;2022-07-29T13:50:02;11.70;;;10.60;;
4057;SDS011;2044;48.692;9.020;2022-07-29T13:52:30;11.07;;;9.87;;
4057;SDS011;2044;48.692;9.020;2022-07-29T13:54:57;11.30;;;9.97;;
4057;SDS011;2044;48.692;9.020;2022-07-29T13:57:25;11.60;;;10.40;;
4057;SDS011;2044;48.692;9.020;2022-07-29T13:59:52;9.90;;;8.93;;
4057;SDS011;2044;48.692;9.020;2022-07-29T14:02:19;10.33;;;9.30;;
4057;SDS011;2044;48.692;9.020;2022-07-29T14:04:46;10.93;;;9.53;;
4057;SDS011;2044;48.692;9.020;2022-07-29T14:07:13;9.70;;;8.90;;
4057;SDS011;2044;48.692;9.020;2022-07-29T14:09:39;10.33;;;9.00;;
4057;SDS011;2044;48.692;9.020;2022-07-29T14:12:07;11.07;;;9.97;;
4057;SDS011;2044;48.692;9.020;2022-07-29T14:14:35;9.70;;;8.80;;
4057;SDS011;2044;48.692;9.020;2022-07-29T14:17:02;10.60;;;9.60;;
4057;SDS011;2044;48.692;9.020;2022-07-29T14:19:31;10.70;;;9.60;;
4057;SDS011;2044;48.692;9.020;2022-07-29T14:22:00;10.47;;;9.57;;
4057;SDS011;2044;48.692;9.020;2022-07-29T14:24:27;10.57;;;9.57;;
4057;SDS011;2044;48.692;9.020;2022-07-29T14:26:54;10.20;;;9.30;;
4057;SDS011;2044;48.692;9.020;2022-07-29T14:29:21;10.70;;;9.70;;
4057;SDS011;2044;48.692;9.020;2022-07-29T14:31:49;10.17;;;9.20;;
4057;SDS011;2044;48.692;9.020;2022-07-29T14:34:16;10.20;;;9.20;;
4057;SDS011;2044;48.692;9.020;2022-07-29T14:36:43;9.77;;;8.77;;
4057;SDS011;2044;48.692;9.020;2022-07-29T14:39:09;9.70;;;8.90;;
4057;SDS011;2044;48.692;9.020;2022-07-29T14:41:36;11.07;;;9.03;;
4057;SDS011;2044;48.692;9.020;2022-07-29T14:44:03;9.83;;;8.90;;
4057;SDS011;2044;48.692;9.020;2022-07-29T14:46:30;10.30;;;8.97;;
4057;SDS011;2044;48.692;9.020;2022-07-29T14:48:58;9.30;;;8.40;;
4057;SDS011;2044;48.692;9.020;2022-07-29T14:51:25;10.10;;;9.30;;
4057;SDS011;2044;48.692;9.020;2022-07-29T14:53:52;10.50;;;9.33;;
4057;SDS011;2044;48.692;9.020;2022-07-29T14:56:18;10.43;;;9.27;;
4057;SDS011;2044;48.692;9.020;2022-07-29T14:58:45;9.40;;;8.57;;
4057;SDS011;2044;48.692;9.020;2022-07-29T15:01:12;10.20;;;9.20;;
4057;SDS011;2044;48.692;9.020;2022-07-29T15:03:39;10.60;;;9.60;;
4057;SDS011;2044;48.692;9.020;2022-07-29T15:06:07;10.30;;;9.30;;
4057;SDS011;2044;48.692;9.020;2022-07-29T15:08:33;10.83;;;9.90;;
4057;SDS011;2044;48.692;9.020;2022-07-29T15:11:00;11.20;;;10.00;;
4057;SDS011;2044;48.692;9.020;2022-07-29T15:13:27;11.73;;;9.70;;
4057;SDS011;2044;48.692;9.020;2022-07-29T15:15:54;10.43;;;9.17;;
4057;SDS011;2044;48.692;9.020;2022-07-29T15:18:21;10.70;;;9.60;;
4057;SDS011;2044;48.692;9.020;2022-07-29T15:20:48;9.80;;;8.70;;
4057;SDS011;2044;48.692;9.020;2022-07-29T15:23:16;9.40;;;8.53;;
4057;SDS011;2044;48.692;9.020;2022-07-29T15:25:43;10.67;;;9.60;;
4057;SDS011;2044;48.692;9.020;2022-07-29T15:28:10;9.60;;;8.60;;
4057;SDS011;2044;48.692;9.020;2022-07-29T15:30:37;9.23;;;8.43;;